Time;durP1;ratioP1;P1;durP2;ratioP2;P2;SDS_P1;SDS_P2;PMS_P1;PMS_P2;Temp;Humidity;BMP_temperature;BMP_pressure;BME280_temperature;BME280_humidity;BME280_pressure;Samples;Min_cycle;Max_cycle;Signal;HPM_P1;HPM_P2
2022/01/22 00:04:56;;;;;;;2.25;0.90;;;;;;;1.68;63.47;98155.06;10510871;28;20047;-78
2022/01/22 00:10:20;;;;;;;3.08;1.00;;;;;;;1.62;63.93;98155.13;10496399;28;20527;-79
2022/01/22 00:15:42;;;;;;;2.17;0.80;;;;;;;1.60;64.27;98121.16;10483105;28;20424;-78
2022/01/22 00:21:03;;;;;;;1.98;0.85;;;;;;;1.55;64.66;98122.75;10509875;28;20439;-78
2022/01/22 00:26:27;;;;;;;2.05;0.75;;;;;;;1.56;65.37;98123.47;10497303;28;20610;-79
2022/01/22 00:31:48;;;;;;;1.45;0.65;;;;;;;1.57;66.00;98113.97;10482186;28;20097;-78
2022/01/22 00:37:09;;;;;;;1.52;0.70;;;;;;;1.59;65.76;98105.91;10482480;28;20397;-78
2022/01/22 00:42:32;;;;;;;2.58;0.85;;;;;;;1.60;66.49;98096.38;10495994;28;20051;-78
2022/01/22 00:47:53;;;;;;;1.55;0.73;;;;;;;1.55;67.42;98086.22;10499463;28;20056;-78
2022/01/22 00:53:13;;;;;;;2.28;0.80;;;;;;;1.61;67.05;98095.13;10503210;28;20040;-78
2022/01/22 00:58:35;;;;;;;1.50;0.70;;;;;;;1.59;67.67;98092.16;10517034;28;20100;-78
2022/01/22 01:04:01;;;;;;;1.40;0.80;;;;;;;1.63;68.46;98089.81;10503092;28;20064;-78
2022/01/22 01:09:22;;;;;;;2.13;0.60;;;;;;;1.65;69.04;98082.53;10504831;28;20485;-78
2022/01/22 01:14:54;;;;;;;1.70;0.80;;;;;;;1.69;69.27;98084.97;10502326;28;20044;-78
2022/01/22 01:37:17;;;;;;;1.25;0.40;;;;;;;2.03;69.77;98070.59;10518069;28;20105;-78
2022/01/22 01:48:02;;;;;;;1.30;0.30;;;;;;;2.12;70.27;98083.94;10514889;28;20052;-78
2022/01/22 01:58:46;;;;;;;0.75;0.28;;;;;;;2.33;69.97;98078.56;10500218;28;20122;-78
2022/01/22 02:04:12;;;;;;;0.40;0.20;;;;;;;2.39;69.87;98062.66;10500264;28;20490;-78
2022/01/22 02:09:33;;;;;;;0.82;0.25;;;;;;;2.38;69.64;98061.91;10500964;28;20048;-78
2022/01/22 02:26:50;;;;;;;0.75;0.40;;;;;;;2.57;70.10;98054.25;10516311;28;20398;-78
2022/01/22 02:38:13;;;;;;;0.93;0.20;;;;;;;2.68;70.11;98044.25;10504480;28;20052;-78
2022/01/22 02:43:34;;;;;;;0.30;0.10;;;;;;;2.76;70.82;98056.13;10513997;28;20096;-78
2022/01/22 02:48:56;;;;;;;0.38;0.10;;;;;;;2.84;69.94;98054.19;10499198;28;20063;-78
2022/01/22 02:54:17;;;;;;;0.95;0.10;;;;;;;2.87;70.51;98042.09;10498699;28;20094;-78
2022/01/22 02:59:39;;;;;;;0.47;0.13;;;;;;;2.91;70.39;98056.28;10512339;28;20058;-78
2022/01/22 03:05:01;;;;;;;0.60;0.10;;;;;;;2.99;70.30;98054.38;10512189;28;20044;-78
2022/01/22 03:10:25;;;;;;;0.57;0.10;;;;;;;3.06;70.77;98041.91;10497784;28;20036;-78
2022/01/22 03:32:19;;;;;;;1.58;0.00;;;;;;;3.31;70.62;98080.97;10513926;28;20070;-78
2022/01/22 03:37:41;;;;;;;0.30;0.10;;;;;;;3.38;70.57;98063.75;10511630;28;20478;-77
2022/01/22 03:43:03;;;;;;;0.20;0.00;;;;;;;3.44;70.71;98078.13;10497239;28;20047;-78
2022/01/22 03:48:24;;;;;;;0.00;0.00;;;;;;;3.50;70.43;98081.50;10497029;28;20058;-78
2022/01/22 03:53:44;;;;;;;0.17;0.00;;;;;;;3.54;70.83;98089.44;10510549;28;20040;-78
2022/01/22 03:59:05;;;;;;;0.40;0.10;;;;;;;3.56;70.69;98100.69;10510942;28;20044;-78
2022/01/22 04:04:53;;;;;;;0.45;0.00;;;;;;;3.59;70.79;98111.41;10516843;28;20393;-78
2022/01/22 04:10:17;;;;;;;0.25;0.10;;;;;;;3.62;70.78;98118.59;10484383;28;20042;-78
2022/01/22 04:15:40;;;;;;;0.28;0.00;;;;;;;3.63;70.55;98125.59;10497136;28;20066;-78
2022/01/22 04:26:55;;;;;;;0.08;0.00;;;;;;;3.72;71.33;98138.19;10509572;28;20044;-78
2022/01/22 04:32:17;;;;;;;2.75;0.10;;;;;;;3.70;70.71;98132.47;10508440;28;20101;-78
2022/01/22 04:37:38;;;;;;;0.40;0.05;;;;;;;3.72;71.58;98146.47;10504410;28;20569;-78
2022/01/22 04:43:02;;;;;;;0.20;0.00;;;;;;;3.72;71.01;98152.75;10531938;28;20044;-78
2022/01/22 04:48:40;;;;;;;0.00;0.00;;;;;;;3.74;71.03;98154.97;10518364;28;20052;-78
2022/01/22 04:59:46;;;;;;;0.30;0.00;;;;;;;3.78;71.47;98149.13;10519223;28;20044;-78
2022/01/22 05:05:07;;;;;;;0.85;0.30;;;;;;;3.76;72.07;98165.47;10516836;28;20050;-78
2022/01/22 05:10:58;;;;;;;2.53;0.57;;;;;;;3.73;71.44;98179.06;10474144;28;20120;-78
2022/01/22 05:16:24;;;;;;;2.97;1.10;;;;;;;3.72;71.84;98191.41;10503432;28;20051;-78
2022/01/22 05:21:47;;;;;;;0.77;0.30;;;;;;;3.71;71.75;98198.19;10501670;28;20051;-79
2022/01/22 05:27:24;;;;;;;0.30;0.10;;;;;;;3.72;71.84;98207.97;10514041;28;20061;-78
2022/01/22 05:38:37;;;;;;;0.20;0.05;;;;;;;3.67;72.67;98217.13;10520937;28;20060;-78
2022/01/22 05:43:57;;;;;;;0.52;0.10;;;;;;;3.65;72.36;98235.50;10515477;28;20059;-78
2022/01/22 05:49:21;;;;;;;0.28;0.10;;;;;;;3.68;71.96;98232.41;10516180;28;20080;-78
2022/01/22 05:55:09;;;;;;;0.27;0.10;;;;;;;3.66;72.19;98242.50;10502200;28;20063;-78
2022/01/22 06:00:29;;;;;;;0.80;0.22;;;;;;;3.66;72.41;98256.28;10511262;28;20044;-78
2022/01/22 06:06:03;;;;;;;0.60;0.20;;;;;;;3.68;72.60;98271.06;10513890;28;20044;-78
2022/01/22 06:11:28;;;;;;;0.40;0.10;;;;;;;3.70;72.60;98282.31;10478356;28;20397;-80
2022/01/22 08:23:11;;;;;;;2.72;0.40;;;;;;;21.26;48.03;98541.75;11863708;24;20892;-81
2022/01/22 08:40:36;;;;;;;1.02;0.30;;;;;;;18.00;45.47;98571.69;10049565;29;20397;-80
2022/01/22 08:46:02;;;;;;;1.83;0.30;;;;;;;13.58;49.98;98566.91;11423771;24;20970;-85
2022/01/22 08:51:24;;;;;;;1.50;0.40;;;;;;;11.50;51.89;98573.47;10030282;29;20054;-87
2022/01/22 08:56:47;;;;;;;3.80;0.50;;;;;;;9.78;53.77;98583.41;10030353;29;20046;-86
2022/01/22 09:02:10;;;;;;;2.28;0.60;;;;;;;14.71;50.33;98581.47;10301731;24;20069;-82
2022/01/22 09:07:56;;;;;;;1.17;0.50;;;;;;;16.56;43.85;98590.66;10027486;24;20066;-82
2022/01/22 09:32:28;;;;;;;4.65;1.50;;;;;;;9.83;48.94;98641.72;10905764;24;20062;-89
2022/01/22 09:37:53;;;;;;;3.28;0.90;;;;;;;8.71;50.03;98634.88;9998878;29;20053;-85
2022/01/22 10:40:40;;;;;;;1.00;0.30;;;;;;;6.57;51.12;98681.72;11760486;24;20058;-77
2022/01/22 10:46:20;;;;;;;1.55;0.43;;;;;;;6.14;52.72;98698.22;9982456;29;20050;-77
2022/01/22 10:51:59;;;;;;;2.80;0.60;;;;;;;6.49;54.23;98691.28;9996812;29;20049;-78
2022/01/22 10:57:23;;;;;;;2.90;0.60;;;;;;;6.58;52.83;98708.19;9996686;29;20049;-76
2022/01/22 11:02:44;;;;;;;1.92;0.55;;;;;;;6.85;53.50;98710.72;9983058;29;20116;-76
2022/01/22 11:08:09;;;;;;;1.35;0.40;;;;;;;8.07;52.16;98700.00;9996544;29;20053;-79
2022/01/22 11:13:30;;;;;;;1.70;0.47;;;;;;;9.03;50.47;98719.78;9984434;29;20388;-79
2022/01/22 11:18:52;;;;;;;1.42;0.40;;;;;;;9.56;48.44;98725.16;9996658;29;20057;-78
2022/01/22 11:24:28;;;;;;;2.88;0.55;;;;;;;10.28;46.36;98720.81;10059656;24;20046;31
2022/01/22 11:29:56;;;;;;;1.90;0.60;;;;;;;10.34;47.09;98717.81;9905733;30;20040;-89
2022/01/22 11:35:37;;;;;;;3.42;0.55;;;;;;;10.22;45.13;98734.25;9894473;30;20142;-86
2022/01/22 11:41:09;;;;;;;2.75;0.68;;;;;;;10.12;45.42;98730.59;9886705;30;20043;-80
2022/01/22 11:46:41;;;;;;;1.73;0.50;;;;;;;10.18;45.58;98737.44;9905538;30;20487;-82
2022/01/22 11:52:09;;;;;;;1.42;0.50;;;;;;;10.61;44.94;98738.22;9914521;30;20060;-79
2022/01/22 11:57:32;;;;;;;2.20;0.82;;;;;;;10.42;44.14;98761.09;9871606;30;20051;-81
2022/01/22 12:03:08;;;;;;;1.60;0.68;;;;;;;10.21;43.87;98747.44;9868425;30;20056;-77
2022/01/22 12:09:12;;;;;;;2.85;1.08;;;;;;;9.65;45.08;98746.09;9838958;30;20079;-80
2022/01/22 12:14:49;;;;;;;1.92;0.80;;;;;;;9.12;45.39;98758.94;9816991;30;20416;-77
2022/01/22 12:25:59;;;;;;;2.42;1.00;;;;;;;9.14;45.32;98775.09;9834538;30;20117;-76
2022/01/22 12:31:21;;;;;;;2.65;0.68;;;;;;;8.81;45.01;98771.44;9809819;30;20052;-76
2022/01/22 12:36:41;;;;;;;2.75;0.70;;;;;;;8.73;44.76;98759.56;9809683;30;20056;-77
2022/01/22 12:42:11;;;;;;;1.88;0.80;;;;;;;8.67;45.31;98756.97;9829361;30;20051;-79
2022/01/22 12:47:32;;;;;;;2.28;0.60;;;;;;;8.69;43.91;98759.97;9851620;30;20056;-78
2022/01/22 12:52:55;;;;;;;1.67;0.50;;;;;;;8.18;43.87;98765.66;9882408;30;20071;-80
2022/01/22 12:58:24;;;;;;;2.00;0.43;;;;;;;7.87;44.07;98773.19;9856447;30;20047;-79
2022/01/22 13:03:48;;;;;;;1.70;0.60;;;;;;;6.98;44.61;98771.69;9867382;30;20056;-80
2022/01/22 13:09:11;;;;;;;3.58;0.68;;;;;;;6.58;45.71;98768.47;9884345;30;20028;-80
2022/01/22 13:14:32;;;;;;;2.60;0.63;;;;;;;6.91;45.63;98777.94;9878054;30;20040;-80
2022/01/22 13:19:53;;;;;;;1.33;0.47;;;;;;;7.03;45.20;98784.69;9891713;30;20048;-81
2022/01/22 13:25:15;;;;;;;2.10;0.55;;;;;;;7.31;45.24;98783.16;9877706;30;20036;-79
2022/01/22 13:30:42;;;;;;;1.55;0.50;;;;;;;7.42;44.48;98780.81;9835772;30;20189;-77
2022/01/22 13:52:52;;;;;;;1.75;0.60;;;;;;;7.13;43.93;98784.91;9859748;30;20035;-79
2022/01/22 13:58:20;;;;;;;2.17;0.70;;;;;;;7.08;44.35;98796.94;9849342;30;20052;-77
2022/01/22 14:03:44;;;;;;;1.67;0.75;;;;;;;7.01;44.15;98800.41;9849346;30;20117;-75
2022/01/22 14:09:17;;;;;;;2.17;0.70;;;;;;;6.88;44.25;98804.03;9849661;30;20462;-75
2022/01/22 14:14:56;;;;;;;3.72;1.00;;;;;;;6.70;44.22;98813.31;9849223;30;20055;-75
2022/01/22 14:20:23;;;;;;;3.63;0.70;;;;;;;6.62;44.10;98820.81;9860999;30;20131;-76
2022/01/22 14:26:03;;;;;;;1.77;0.63;;;;;;;6.41;44.52;98820.84;9848543;30;20369;-76
2022/01/22 14:31:28;;;;;;;2.35;0.70;;;;;;;6.26;44.77;98833.25;9848199;30;20055;-76
2022/01/22 14:36:49;;;;;;;2.30;1.05;;;;;;;5.92;45.19;98832.53;9867696;30;20035;-79
2022/01/22 14:47:54;;;;;;;2.55;0.88;;;;;;;5.77;45.46;98838.59;9862021;30;20056;-75
2022/01/22 14:53:14;;;;;;;4.18;0.90;;;;;;;5.43;45.47;98839.31;9847451;30;20052;-77
2022/01/22 14:58:36;;;;;;;5.15;1.27;;;;;;;5.06;45.69;98851.31;9857878;30;20059;-80
2022/01/22 15:03:57;;;;;;;3.85;1.30;;;;;;;4.75;46.33;98854.91;9862342;30;20163;-77
2022/01/22 15:09:38;;;;;;;2.72;1.08;;;;;;;4.49;47.40;98855.56;9848584;30;20058;-78
2022/01/22 15:14:59;;;;;;;4.13;1.33;;;;;;;4.49;47.47;98863.84;9858528;30;20075;-80
2022/01/22 15:20:24;;;;;;;3.55;1.17;;;;;;;4.37;47.76;98874.34;9856343;30;20052;-79
2022/01/22 15:25:46;;;;;;;;;;;;;;;4.40;48.06;98878.81;9865922;30;20047;-81
2022/01/22 15:31:15;;;;;;;5.55;2.60;;;;;;;4.34;47.76;98885.69;9855686;30;19926;-79
2022/01/22 15:36:36;;;;;;;4.72;1.80;;;;;;;4.26;47.88;98880.03;9892175;30;20089;-85
2022/01/22 15:41:57;;;;;;;4.53;2.25;;;;;;;4.21;48.28;98883.63;9847648;30;20507;-79
2022/01/22 15:47:18;;;;;;;5.90;2.13;;;;;;;4.18;48.27;98893.72;9859952;30;20541;-79
2022/01/22 15:52:39;;;;;;;4.38;1.98;;;;;;;4.17;48.45;98895.00;9825466;30;20108;-81
2022/01/22 15:58:00;;;;;;;4.18;1.60;;;;;;;4.16;48.55;98890.72;9837512;30;20068;-81
2022/01/22 16:03:24;;;;;;;3.17;1.65;;;;;;;4.12;48.52;98895.06;9815554;30;20060;-83
2022/01/22 16:08:46;;;;;;;;;;;;;;;4.08;48.81;98902.91;9854759;30;20044;-82
2022/01/22 16:14:27;;;;;;;3.80;1.95;;;;;;;4.07;48.98;98910.44;9891277;30;19926;-82
2022/01/22 16:19:49;;;;;;;19.25;8.93;;;;;;;4.04;49.43;98919.75;9885214;30;20036;-80
2022/01/22 16:25:11;;;;;;;10.43;6.05;;;;;;;4.02;49.80;98925.06;9838706;30;20477;-80
2022/01/22 16:30:32;;;;;;;7.72;3.67;;;;;;;4.00;49.49;98938.66;9819992;30;20052;-79
2022/01/22 16:35:53;;;;;;;7.95;4.80;;;;;;;3.94;49.84;98935.97;9816369;30;20056;-78
2022/01/22 16:41:15;;;;;;;8.27;3.30;;;;;;;3.94;49.93;98940.75;9817002;30;20051;-77
2022/01/22 16:46:49;;;;;;;7.53;4.85;;;;;;;3.94;50.02;98935.22;9838135;30;20056;-78
2022/01/22 16:52:51;;;;;;;7.97;4.13;;;;;;;3.91;50.26;98930.75;9829392;30;20056;-82
2022/01/22 16:58:00;;;;;;;7.80;4.73;;;;;;;3.88;50.46;98931.78;9821921;30;20144;-77
2022/01/22 17:03:28;;;;;;;6.68;3.50;;;;;;;3.83;50.53;98941.63;9815671;30;20390;-76
2022/01/22 17:09:06;;;;;;;7.05;3.72;;;;;;;3.80;50.70;98948.19;9815824;30;20086;-77
2022/01/22 17:14:27;;;;;;;7.85;3.67;;;;;;;3.80;51.03;98950.22;9817972;30;20455;-77
2022/01/22 17:19:50;;;;;;;8.38;4.22;;;;;;;3.74;51.44;98951.00;9813936;30;20040;-76
2022/01/22 17:25:10;;;;;;;10.43;6.22;;;;;;;3.74;51.26;98962.06;9815628;30;20132;-80
2022/01/22 17:30:31;;;;;;;14.07;8.23;;;;;;;3.76;51.65;98961.53;9815196;30;20063;-79
2022/01/22 17:35:52;;;;;;;11.60;6.10;;;;;;;3.82;51.41;98967.00;9820285;30;20052;-82
2022/01/22 17:41:16;;;;;;;10.70;6.18;;;;;;;3.84;52.30;98965.22;9817176;30;20056;-77
2022/01/22 17:46:36;;;;;;;9.30;5.57;;;;;;;3.87;52.01;98968.97;9848489;30;20025;-81
2022/01/22 17:51:58;;;;;;;10.40;5.47;;;;;;;3.88;52.36;98967.69;9860114;30;20064;-84
2022/01/22 17:57:20;;;;;;;10.20;4.80;;;;;;;3.89;51.81;98972.69;9861323;30;20131;-82
2022/01/22 18:02:41;;;;;;;8.93;5.00;;;;;;;3.91;52.40;98977.69;9866067;30;20044;-82
2022/01/22 18:08:03;;;;;;;10.80;5.40;;;;;;;3.91;52.17;98972.19;10272855;24;20029;-82
2022/01/22 18:13:25;;;;;;;8.43;4.68;;;;;;;3.89;52.22;98974.72;10356797;24;20062;-83
2022/01/22 18:18:46;;;;;;;9.88;5.40;;;;;;;3.84;52.56;98987.31;9947031;29;20074;-80
2022/01/22 18:24:24;;;;;;;9.70;5.55;;;;;;;3.88;52.61;98987.78;9913473;29;20419;-77
2022/01/22 18:29:45;;;;;;;8.20;4.30;;;;;;;3.89;52.35;98994.06;9910015;29;20050;-77
2022/01/22 18:35:06;;;;;;;7.50;4.95;;;;;;;3.89;52.83;98992.03;9909339;29;20049;-78
2022/01/22 18:40:27;;;;;;;7.78;4.57;;;;;;;3.88;52.86;98987.03;9921333;29;20066;-77
2022/01/22 18:45:52;;;;;;;8.45;5.18;;;;;;;3.89;52.90;98983.00;9911074;29;20055;-80
2022/01/22 18:51:13;;;;;;;9.55;5.38;;;;;;;3.87;53.34;98991.06;9922673;29;20084;-77
2022/01/22 18:56:34;;;;;;;9.45;5.63;;;;;;;3.85;53.07;98982.53;9929573;29;20498;-79
2022/01/22 19:01:55;;;;;;;7.63;4.63;;;;;;;3.83;53.65;98988.59;9910699;29;20050;-79
2022/01/22 19:07:16;;;;;;;8.73;5.10;;;;;;;3.88;53.33;98995.31;9942719;29;20050;-78
2022/01/22 19:12:40;;;;;;;8.32;4.25;;;;;;;3.89;53.29;98994.06;9945793;29;20053;-77
2022/01/22 19:18:01;;;;;;;7.05;4.43;;;;;;;3.90;53.76;98993.53;9958963;29;20062;-78
2022/01/22 19:29:01;;;;;;;8.45;5.15;;;;;;;3.88;53.31;98993.31;9962298;29;20493;-78
2022/01/22 19:34:24;;;;;;;8.20;4.70;;;;;;;3.91;53.57;98999.81;9945227;29;20054;-78
2022/01/22 19:39:46;;;;;;;5.80;3.75;;;;;;;3.92;53.55;98999.28;9945896;29;20079;-78
2022/01/22 19:45:08;;;;;;;8.52;4.57;;;;;;;3.91;53.62;98991.50;9945199;29;20094;-79
2022/01/22 19:50:29;;;;;;;6.32;4.35;;;;;;;3.90;53.98;98995.56;9945151;29;20050;-78
2022/01/22 19:55:53;;;;;;;6.85;3.35;;;;;;;3.94;53.65;98990.47;9959873;29;20137;-80
2022/01/22 20:01:16;;;;;;;17.10;8.73;;;;;;;3.93;53.79;98989.72;9982526;29;20076;-81
2022/01/22 20:06:37;;;;;;;14.70;6.60;;;;;;;3.91;54.35;98986.75;10002282;29;20046;-80
2022/01/22 20:11:59;;;;;;;16.30;9.98;;;;;;;3.97;54.29;98990.19;9967257;29;20042;-81
2022/01/22 20:17:20;;;;;;;11.77;6.82;;;;;;;4.01;53.85;98984.38;9990511;29;20035;-79
2022/01/22 20:22:41;;;;;;;12.95;7.95;;;;;;;4.02;54.32;98989.38;9984148;29;20033;-80
2022/01/22 20:28:03;;;;;;;11.55;6.60;;;;;;;4.07;54.11;98978.78;9970707;29;20053;-82
2022/01/22 20:33:25;;;;;;;13.55;6.78;;;;;;;4.12;54.26;98972.44;10004910;29;20058;-81
2022/01/22 20:38:46;;;;;;;11.05;6.47;;;;;;;4.20;54.40;98963.03;10005798;29;20098;-82
2022/01/22 20:44:09;;;;;;;11.23;6.55;;;;;;;4.24;54.53;98963.47;9972960;29;20448;-78
2022/01/22 20:49:30;;;;;;;10.75;6.30;;;;;;;4.25;54.94;98964.97;9942988;29;20525;-77
2022/01/22 20:54:51;;;;;;;12.60;6.78;;;;;;;4.27;54.56;98973.50;9955884;29;20394;-77
2022/01/22 21:00:12;;;;;;;12.63;6.65;;;;;;;4.29;54.87;98967.44;9942857;29;20055;-77
2022/01/22 21:05:34;;;;;;;14.88;7.65;;;;;;;4.28;55.05;98969.47;9972945;29;20673;-77
2022/01/22 21:10:55;;;;;;;19.08;8.18;;;;;;;4.34;54.93;98971.38;9949683;29;20490;-78
2022/01/22 21:16:17;;;;;;;15.45;7.95;;;;;;;4.32;54.95;98972.66;9949298;29;20114;-78
2022/01/22 21:21:38;;;;;;;14.63;7.93;;;;;;;4.35;55.12;98967.38;9949408;29;20074;-77
2022/01/22 21:27:01;;;;;;;10.57;6.60;;;;;;;4.36;55.50;98950.25;9949621;29;20598;-78
2022/01/22 21:32:22;;;;;;;11.57;6.20;;;;;;;4.37;55.24;98954.50;9950021;29;20212;-78
2022/01/22 21:43:28;;;;;;;11.80;5.07;;;;;;;4.45;55.66;98955.41;9954022;29;20546;-78
2022/01/22 21:48:48;;;;;;;8.75;4.63;;;;;;;4.45;55.32;98943.59;9948354;29;20102;-78
2022/01/22 21:54:10;;;;;;;7.90;4.10;;;;;;;4.47;55.58;98949.34;9943778;29;20542;-78
2022/01/22 21:59:31;;;;;;;6.68;3.65;;;;;;;4.49;55.55;98961.38;9956216;29;20050;-78
2022/01/22 22:04:53;;;;;;;6.45;3.00;;;;;;;4.52;55.31;98956.81;9955740;29;20050;-78
2022/01/22 22:10:14;;;;;;;4.75;2.20;;;;;;;4.58;55.51;98968.56;9956694;29;20477;-78
2022/01/22 22:15:41;;;;;;;4.13;2.20;;;;;;;4.62;54.90;98985.56;9943303;29;20061;-78
2022/01/22 22:21:03;;;;;;;5.82;2.10;;;;;;;4.65;55.03;98979.00;9957728;29;20054;-78
2022/01/22 22:26:24;;;;;;;5.32;1.90;;;;;;;4.67;55.14;98976.47;9933788;29;20502;-78
2022/01/22 22:31:45;;;;;;;3.83;1.60;;;;;;;4.65;54.79;98973.47;9959537;29;20053;-78
2022/01/22 22:37:06;;;;;;;4.63;1.45;;;;;;;4.65;55.05;98984.53;9946738;29;20478;-78
2022/01/22 22:42:33;;;;;;;3.17;1.48;;;;;;;4.59;54.93;98983.88;9945555;29;20042;-77
2022/01/22 22:47:55;;;;;;;3.05;1.65;;;;;;;4.60;55.45;98988.13;9944880;29;20130;-78
2022/01/22 22:53:16;;;;;;;4.50;1.65;;;;;;;4.61;54.96;98992.38;9942998;29;20119;-78
2022/01/22 22:58:37;;;;;;;3.08;1.42;;;;;;;4.63;55.40;98976.00;9954991;29;20046;-78
2022/01/22 23:03:59;;;;;;;2.50;1.20;;;;;;;4.65;55.41;98979.00;9986667;24;20450;-78
2022/01/22 23:09:20;;;;;;;2.45;1.38;;;;;;;4.69;54.85;98979.44;9993017;29;20042;-78
2022/01/22 23:14:47;;;;;;;2.72;1.10;;;;;;;4.66;55.58;98979.75;10007425;29;20485;-78
2022/01/22 23:25:55;;;;;;;2.42;1.50;;;;;;;4.68;55.71;98989.03;10026885;29;20049;-78
2022/01/22 23:31:30;;;;;;;5.47;1.90;;;;;;;4.64;56.63;98994.13;9979554;29;20042;-78
2022/01/22 23:59:11;;;;;;;5.82;3.17;;;;;;;4.47;57.76;99015.72;10009249;29;20050;-78
